createdAt,value
2022-09-07T00:01:53.065Z,100.00
2022-09-07T00:04:20.737Z,100.00
2022-09-07T00:06:48.378Z,100.00
2022-09-07T00:09:15.996Z,100.00
2022-09-07T00:11:43.607Z,100.00
2022-09-07T00:14:11.196Z,100.00
2022-09-07T00:16:38.834Z,100.00
2022-09-07T00:19:07.945Z,100.00
2022-09-07T00:21:36.097Z,100.00
2022-09-07T00:24:04.497Z,100.00
2022-09-07T00:26:32.770Z,100.00
2022-09-07T00:29:02.250Z,100.00
2022-09-07T00:31:31.142Z,100.00
2022-09-07T00:34:00.595Z,100.00
2022-09-07T00:36:29.802Z,100.00
2022-09-07T00:38:57.710Z,100.00
2022-09-07T00:41:25.561Z,100.00
2022-09-07T00:43:54.869Z,100.00
2022-09-07T00:46:24.302Z,100.00
2022-09-07T00:48:56.591Z,100.00
2022-09-07T00:51:28.709Z,100.00
2022-09-07T00:53:59.265Z,100.00
2022-09-07T00:56:29.806Z,100.00
2022-09-07T00:58:58.668Z,100.00
2022-09-07T01:01:27.060Z,100.00
2022-09-07T01:03:56.634Z,100.00
2022-09-07T01:06:27.915Z,100.00
2022-09-07T01:08:57.948Z,100.00
2022-09-07T01:11:26.310Z,100.00
2022-09-07T01:13:55.267Z,100.00
2022-09-07T01:16:33.690Z,100.00
2022-09-07T01:19:14.525Z,100.00
2022-09-07T01:21:50.150Z,100.00
2022-09-07T01:24:34.877Z,100.00
2022-09-07T01:27:35.055Z,100.00
2022-09-07T01:30:05.761Z,100.00
2022-09-07T01:32:44.162Z,100.00
2022-09-07T01:35:18.531Z,100.00
2022-09-07T01:37:55.040Z,100.00
2022-09-07T01:40:31.129Z,100.00
2022-09-07T01:43:05.134Z,100.00
2022-09-07T01:45:35.462Z,100.00
2022-09-07T01:48:06.020Z,100.00
2022-09-07T01:50:36.627Z,100.00
2022-09-07T01:53:09.855Z,100.00
2022-09-07T01:55:40.484Z,100.00
2022-09-07T01:58:12.708Z,100.00
2022-09-07T02:00:40.998Z,100.00
2022-09-07T02:03:12.909Z,100.00
2022-09-07T02:05:44.505Z,100.00
2022-09-07T02:08:14.765Z,100.00
2022-09-07T02:10:45.250Z,100.00
2022-09-07T02:13:17.297Z,100.00
2022-09-07T02:15:46.777Z,100.00
2022-09-07T02:18:15.405Z,100.00
2022-09-07T02:20:47.310Z,100.00
2022-09-07T02:23:19.270Z,100.00
2022-09-07T02:25:52.126Z,100.00
2022-09-07T02:28:23.547Z,100.00
2022-09-07T02:30:51.326Z,100.00
2022-09-07T02:33:19.140Z,100.00
2022-09-07T02:35:46.994Z,100.00
2022-09-07T02:38:14.709Z,100.00
2022-09-07T02:40:42.296Z,100.00
2022-09-07T02:43:10.804Z,100.00
2022-09-07T02:46:03.596Z,100.00
2022-09-07T02:48:38.701Z,100.00
2022-09-07T02:51:12.745Z,100.00
2022-09-07T02:53:59.712Z,100.00
2022-09-07T02:56:42.601Z,100.00
2022-09-07T02:59:19.915Z,100.00
2022-09-07T03:01:57.155Z,100.00
2022-09-07T03:04:26.989Z,100.00
2022-09-07T03:06:58.419Z,100.00
2022-09-07T03:09:30.471Z,100.00
2022-09-07T03:11:57.924Z,100.00
2022-09-07T03:14:26.872Z,100.00
2022-09-07T03:16:57.226Z,100.00
2022-09-07T03:19:24.954Z,100.00
2022-09-07T03:21:52.878Z,100.00
2022-09-07T03:24:20.559Z,100.00
2022-09-07T03:26:50.502Z,100.00
2022-09-07T03:29:18.415Z,100.00
2022-09-07T03:31:46.052Z,100.00
2022-09-07T03:34:15.095Z,100.00
2022-09-07T03:36:42.737Z,100.00
2022-09-07T03:39:12.384Z,100.00
2022-09-07T03:41:40.031Z,100.00
2022-09-07T03:44:08.656Z,100.00
2022-09-07T03:46:36.345Z,100.00
2022-09-07T03:49:04.005Z,100.00
2022-09-07T03:51:32.974Z,100.00
2022-09-07T03:54:00.853Z,100.00
2022-09-07T03:56:28.911Z,100.00
2022-09-07T03:58:56.858Z,100.00
2022-09-07T04:01:26.151Z,100.00
2022-09-07T04:03:54.536Z,100.00
2022-09-07T04:06:23.689Z,100.00
2022-09-07T04:08:52.623Z,100.00
2022-09-07T04:11:20.421Z,100.00
2022-09-07T04:13:48.013Z,100.00
2022-09-07T04:16:18.458Z,100.00
2022-09-07T04:18:46.465Z,100.00
2022-09-07T04:21:14.521Z,100.00
2022-09-07T04:23:43.380Z,100.00
2022-09-07T04:26:16.708Z,100.00
2022-09-07T04:28:44.727Z,100.00
2022-09-07T04:31:12.474Z,100.00
2022-09-07T04:33:40.100Z,100.00
2022-09-07T04:36:08.283Z,100.00
2022-09-07T04:38:36.105Z,100.00
2022-09-07T04:41:06.571Z,100.00
2022-09-07T04:43:35.569Z,100.00
2022-09-07T04:46:03.768Z,100.00
2022-09-07T04:48:31.565Z,100.00
2022-09-07T04:51:05.932Z,100.00
2022-09-07T04:53:33.686Z,100.00
2022-09-07T04:56:01.698Z,100.00
2022-09-07T04:58:29.566Z,100.00
2022-09-07T05:01:02.137Z,100.00
2022-09-07T05:03:29.882Z,100.00
2022-09-07T05:05:57.496Z,100.00
2022-09-07T05:08:25.136Z,100.00
2022-09-07T05:10:53.758Z,100.00
2022-09-07T05:13:21.738Z,100.00
2022-09-07T05:15:49.374Z,100.00
2022-09-07T05:18:18.312Z,100.00
2022-09-07T05:20:45.897Z,100.00
2022-09-07T05:23:13.922Z,100.00
2022-09-07T05:25:44.647Z,100.00
2022-09-07T05:28:14.858Z,100.00
2022-09-07T05:36:25.598Z,100.00
2022-09-07T05:38:53.556Z,100.00
2022-09-07T05:41:22.406Z,100.00
2022-09-07T05:46:38.069Z,100.00
2022-09-07T05:49:08.056Z,100.00
2022-09-07T05:51:37.022Z,100.00
2022-09-07T05:54:04.880Z,100.00
2022-09-07T05:56:35.810Z,100.00
2022-09-07T05:59:03.443Z,100.00
2022-09-07T06:01:31.196Z,100.00
2022-09-07T06:03:59.013Z,100.00
2022-09-07T06:06:28.111Z,100.00
2022-09-07T06:08:57.635Z,100.00
2022-09-07T06:11:26.475Z,100.00
2022-09-07T06:13:54.222Z,100.00
2022-09-07T06:16:22.757Z,100.00
2022-09-07T06:18:51.178Z,100.00
2022-09-07T06:21:20.495Z,100.00
2022-09-07T06:23:50.006Z,100.00
2022-09-07T06:26:19.032Z,100.00
2022-09-07T06:28:49.853Z,100.00
2022-09-07T06:31:20.374Z,100.00
2022-09-07T06:33:48.521Z,100.00
2022-09-07T06:36:17.445Z,100.00
2022-09-07T06:38:45.253Z,100.00
2022-09-07T06:44:04.426Z,100.00
2022-09-07T06:49:20.077Z,100.00
2022-09-07T06:51:47.976Z,100.00
2022-09-07T06:57:08.789Z,100.00
2022-09-07T06:59:37.210Z,100.00
2022-09-07T07:02:05.567Z,100.00
2022-09-07T07:04:39.558Z,100.00
2022-09-07T07:07:11.274Z,100.00
2022-09-07T07:09:39.334Z,100.00
2022-09-07T07:12:08.573Z,100.00
2022-09-07T07:14:39.758Z,100.00
2022-09-07T07:17:08.912Z,100.00
2022-09-07T07:19:36.591Z,100.00
2022-09-07T07:22:29.549Z,100.00
2022-09-07T07:24:51.941Z,100.00
2022-09-07T07:27:21.593Z,100.00
2022-09-07T07:29:50.059Z,100.00
2022-09-07T07:32:17.902Z,100.00
2022-09-07T07:34:45.579Z,97.91
2022-09-07T07:37:13.212Z,100.00
2022-09-07T07:42:31.315Z,99.04
2022-09-07T07:47:50.224Z,98.48
2022-09-07T07:50:34.194Z,97.09
2022-09-07T07:55:50.035Z,95.58
2022-09-07T07:58:19.089Z,97.55
2022-09-07T08:00:55.918Z,94.12
2022-09-07T08:03:25.321Z,94.82
2022-09-07T08:05:53.308Z,91.03
2022-09-07T08:08:21.390Z,88.93
2022-09-07T08:10:49.501Z,87.23
2022-09-07T08:13:17.834Z,87.69
2022-09-07T08:15:47.178Z,86.99
2022-09-07T08:18:16.591Z,86.19
2022-09-07T08:20:44.475Z,86.26
2022-09-07T08:23:12.230Z,84.25
2022-09-07T08:25:39.951Z,84.51
2022-09-07T08:28:07.865Z,84.56
2022-09-07T08:30:35.677Z,81.65
2022-09-07T08:33:04.942Z,79.03
2022-09-07T08:35:32.731Z,78.58
2022-09-07T08:38:00.492Z,76.00
2022-09-07T08:40:28.304Z,78.48
2022-09-07T08:43:03.364Z,79.92
2022-09-07T08:45:33.641Z,77.17
2022-09-07T08:48:01.815Z,78.61
2022-09-07T08:50:34.761Z,76.86
2022-09-07T08:53:05.733Z,74.80
2022-09-07T08:55:35.831Z,74.72
2022-09-07T08:58:22.160Z,70.40
2022-09-07T09:06:43.174Z,68.34
2022-09-07T09:09:17.785Z,71.51
2022-09-07T09:11:53.879Z,67.36
2022-09-07T09:16:59.094Z,66.72
2022-09-07T09:19:50.689Z,67.96
2022-09-07T09:22:22.887Z,69.14
2022-09-07T09:24:53.232Z,71.20
2022-09-07T09:27:21.143Z,69.00
2022-09-07T09:29:48.770Z,71.39
2022-09-07T09:32:37.708Z,69.89
2022-09-07T09:35:12.873Z,71.68
2022-09-07T09:37:43.099Z,72.71
2022-09-07T09:40:23.400Z,71.57
2022-09-07T09:43:01.883Z,71.79
2022-09-07T09:46:11.988Z,74.08
2022-09-07T09:48:21.101Z,71.99
2022-09-07T09:53:42.225Z,69.10
2022-09-07T09:56:10.861Z,69.82
2022-09-07T10:01:35.311Z,71.60
2022-09-07T10:04:22.623Z,69.79
2022-09-07T10:06:54.864Z,69.35
2022-09-07T10:09:27.074Z,70.68
2022-09-07T10:12:06.745Z,70.17
2022-09-07T10:14:37.208Z,70.09
2022-09-07T10:17:15.460Z,69.41
2022-09-07T10:19:44.209Z,67.76
2022-09-07T10:22:32.081Z,66.66
2022-09-07T10:25:02.062Z,66.91
2022-09-07T10:27:34.863Z,64.94
2022-09-07T10:30:05.906Z,65.56
2022-09-07T10:32:44.072Z,68.56
2022-09-07T10:35:19.086Z,66.31
2022-09-07T10:37:54.452Z,69.31
2022-09-07T10:40:32.387Z,63.57
2022-09-07T10:43:23.496Z,68.92
2022-09-07T10:46:03.651Z,64.92
2022-09-07T10:48:34.491Z,62.62
2022-09-07T10:51:13.788Z,65.88
2022-09-07T10:56:51.853Z,64.10
2022-09-07T11:02:23.542Z,63.71
2022-09-07T11:04:59.953Z,63.14
2022-09-07T11:07:47.447Z,64.87
2022-09-07T11:10:20.579Z,62.20
2022-09-07T11:12:52.418Z,64.41
2022-09-07T11:15:21.010Z,61.25
2022-09-07T11:17:53.114Z,61.82
2022-09-07T11:20:26.821Z,62.20
2022-09-07T11:23:02.165Z,58.65
2022-09-07T11:25:33.953Z,59.75
2022-09-07T11:28:08.504Z,62.88
2022-09-07T11:30:38.358Z,60.56
2022-09-07T11:33:12.359Z,59.87
2022-09-07T11:35:48.774Z,56.94
2022-09-07T11:38:25.987Z,57.96
2022-09-07T11:41:03.015Z,60.74
2022-09-07T11:43:34.286Z,57.86
2022-09-07T11:46:05.198Z,55.98
2022-09-07T11:48:36.107Z,57.29
2022-09-07T11:51:06.062Z,57.05
2022-09-07T11:53:37.013Z,58.24
2022-09-07T11:56:12.033Z,57.17
2022-09-07T11:58:52.925Z,57.24
2022-09-07T12:01:29.864Z,56.09
2022-09-07T12:04:16.440Z,55.23
2022-09-07T12:07:18.170Z,55.97
2022-09-07T12:09:58.035Z,56.63
2022-09-07T12:12:54.248Z,54.87
2022-09-07T12:15:31.675Z,56.79
2022-09-07T12:18:09.824Z,55.45
2022-09-07T12:20:41.798Z,55.33
2022-09-07T12:23:21.473Z,56.56
2022-09-07T12:25:50.605Z,55.50
2022-09-07T12:28:22.027Z,53.44
2022-09-07T12:30:57.855Z,50.99
2022-09-07T12:33:36.667Z,53.08
2022-09-07T12:36:41.244Z,55.83
2022-09-07T12:39:28.739Z,51.07
2022-09-07T12:45:41.958Z,52.07
2022-09-07T12:48:13.919Z,53.12
2022-09-07T12:50:54.745Z,52.36
2022-09-07T12:53:29.294Z,52.53
2022-09-07T12:56:18.916Z,51.88
2022-09-07T12:58:52.739Z,50.91
2022-09-07T13:01:28.514Z,49.80
2022-09-07T13:04:18.069Z,52.21
2022-09-07T13:07:10.086Z,50.48
2022-09-07T13:09:37.785Z,51.78
2022-09-07T13:15:33.524Z,50.16
2022-09-07T13:18:03.539Z,50.41
2022-09-07T13:20:36.074Z,48.30
2022-09-07T13:23:23.891Z,50.79
2022-09-07T13:25:54.533Z,48.89
2022-09-07T13:28:28.332Z,49.30
2022-09-07T13:31:18.144Z,51.25
2022-09-07T13:33:48.911Z,49.12
2022-09-07T13:36:33.657Z,47.84
2022-09-07T13:39:01.466Z,49.76
2022-09-07T13:41:33.433Z,49.64
2022-09-07T13:44:04.126Z,50.19
2022-09-07T13:46:49.428Z,47.86
2022-09-07T13:49:26.913Z,48.63
2022-09-07T13:52:01.909Z,47.22
2022-09-07T13:54:42.480Z,47.19
2022-09-07T13:57:17.909Z,47.10
2022-09-07T13:59:48.289Z,48.34
2022-09-07T14:02:23.640Z,47.11
2022-09-07T14:04:52.457Z,45.79
2022-09-07T14:07:22.589Z,47.23
2022-09-07T14:09:50.560Z,49.07
2022-09-07T14:12:21.143Z,51.35
2022-09-07T14:15:09.483Z,44.42
2022-09-07T14:17:37.327Z,48.23
2022-09-07T14:20:06.413Z,47.31
2022-09-07T14:22:35.707Z,45.64
2022-09-07T14:25:06.380Z,45.51
2022-09-07T14:27:36.158Z,46.74
2022-09-07T14:30:22.713Z,45.87
2022-09-07T14:32:52.486Z,49.46
2022-09-07T14:35:22.892Z,48.27
2022-09-07T14:37:51.344Z,46.43
2022-09-07T14:40:23.004Z,44.74
2022-09-07T14:42:50.767Z,46.24
2022-09-07T14:45:32.083Z,46.30
2022-09-07T14:48:00.238Z,46.38
2022-09-07T14:50:31.034Z,43.24
2022-09-07T14:55:47.532Z,46.76
2022-09-07T14:58:25.510Z,48.73
2022-09-07T15:03:57.796Z,47.56
2022-09-07T15:09:28.943Z,47.29
2022-09-07T15:12:05.530Z,45.50
2022-09-07T15:14:33.565Z,46.50
2022-09-07T15:19:51.369Z,47.82
2022-09-07T15:22:20.363Z,51.36
2022-09-07T15:24:48.251Z,47.02
2022-09-07T15:27:20.380Z,50.90
2022-09-07T15:29:48.178Z,49.61
2022-09-07T15:32:18.229Z,49.38
2022-09-07T15:34:46.142Z,50.58
2022-09-07T15:40:07.458Z,50.79
2022-09-07T15:45:23.167Z,50.75
2022-09-07T15:47:53.444Z,51.37
2022-09-07T15:50:23.186Z,49.63
2022-09-07T15:52:51.300Z,52.51
2022-09-07T15:55:19.567Z,52.36
2022-09-07T15:57:51.184Z,50.15
2022-09-07T16:00:22.583Z,52.31
2022-09-07T16:03:08.373Z,52.48
2022-09-07T16:05:36.816Z,53.64
2022-09-07T16:10:54.478Z,54.80
2022-09-07T16:13:24.234Z,53.95
2022-09-07T16:15:52.253Z,53.17
2022-09-07T16:18:21.395Z,52.57
2022-09-07T16:20:52.762Z,53.68
2022-09-07T16:23:20.554Z,54.96
2022-09-07T16:25:58.569Z,54.77
2022-09-07T16:28:26.417Z,54.69
2022-09-07T16:30:54.401Z,54.58
2022-09-07T16:33:31.236Z,56.33
2022-09-07T16:36:06.172Z,56.48
2022-09-07T16:38:49.355Z,55.70
2022-09-07T16:41:20.453Z,59.44
2022-09-07T16:43:48.357Z,59.25
2022-09-07T16:46:17.460Z,58.88
2022-09-07T16:48:46.588Z,59.83
2022-09-07T16:51:21.861Z,59.52
2022-09-07T16:53:50.589Z,60.31
2022-09-07T16:56:19.659Z,61.89
2022-09-07T16:58:48.646Z,61.84
2022-09-07T17:01:17.710Z,61.01
2022-09-07T17:03:49.383Z,60.37
2022-09-07T17:06:17.658Z,59.48
2022-09-07T17:08:46.199Z,60.43
2022-09-07T17:11:15.773Z,61.09
2022-09-07T17:13:44.519Z,61.78
2022-09-07T17:16:14.114Z,61.75
2022-09-07T17:21:33.159Z,61.90
2022-09-07T17:24:03.834Z,62.19
2022-09-07T17:26:32.055Z,62.50
2022-09-07T17:29:00.907Z,62.30
2022-09-07T17:34:18.611Z,63.31
2022-09-07T17:36:47.697Z,64.88
2022-09-07T17:39:17.512Z,65.71
2022-09-07T17:41:46.975Z,66.28
2022-09-07T17:44:14.606Z,65.92
2022-09-07T17:46:42.249Z,66.15
2022-09-07T17:49:12.347Z,67.95
2022-09-07T17:51:40.176Z,68.99
2022-09-07T17:54:12.771Z,69.16
2022-09-07T17:56:40.822Z,71.41
2022-09-07T18:01:56.390Z,72.93
2022-09-07T18:04:24.513Z,74.16
2022-09-07T18:06:52.150Z,73.96
2022-09-07T18:09:21.714Z,74.84
2022-09-07T18:11:50.321Z,72.92
2022-09-07T18:14:18.952Z,73.34
2022-09-07T18:16:49.302Z,72.83
2022-09-07T18:19:18.265Z,73.56
2022-09-07T18:21:47.686Z,72.86
2022-09-07T18:24:17.622Z,73.56
2022-09-07T18:26:51.588Z,73.56
2022-09-07T18:29:31.363Z,73.91
2022-09-07T18:32:01.488Z,74.08
2022-09-07T18:34:30.713Z,73.41
2022-09-07T18:36:59.165Z,75.23
2022-09-07T18:39:27.098Z,75.35
2022-09-07T18:41:56.378Z,76.29
2022-09-07T18:47:21.422Z,77.13
2022-09-07T18:49:51.485Z,78.24
2022-09-07T18:55:08.494Z,76.55
2022-09-07T18:57:37.424Z,76.37
2022-09-07T19:00:06.705Z,76.57
2022-09-07T19:02:34.425Z,76.82
2022-09-07T19:07:49.645Z,77.14
2022-09-07T19:10:17.780Z,76.30
2022-09-07T19:12:46.756Z,76.66
2022-09-07T19:15:14.783Z,77.26
2022-09-07T19:17:42.328Z,77.46
2022-09-07T19:20:10.871Z,77.15
2022-09-07T19:22:38.986Z,76.20
2022-09-07T19:25:07.159Z,76.39
2022-09-07T19:27:34.732Z,78.28
2022-09-07T19:30:03.746Z,77.34
2022-09-07T19:32:31.311Z,75.45
2022-09-07T19:34:58.919Z,77.02
2022-09-07T19:37:28.788Z,77.31
2022-09-07T19:39:56.665Z,78.05
2022-09-07T19:42:24.771Z,78.07
2022-09-07T19:44:52.594Z,78.14
2022-09-07T19:47:21.900Z,78.72
2022-09-07T19:49:49.517Z,79.18
2022-09-07T19:52:17.117Z,79.25
2022-09-07T19:54:44.714Z,79.16
2022-09-07T19:57:12.318Z,78.53
2022-09-07T19:59:39.899Z,78.92
2022-09-07T20:02:07.539Z,77.87
2022-09-07T20:04:36.450Z,78.16
2022-09-07T20:07:04.213Z,77.75
2022-09-07T20:09:31.752Z,77.81
2022-09-07T20:12:01.724Z,77.57
2022-09-07T20:14:29.418Z,76.64
2022-09-07T20:16:57.297Z,76.41
2022-09-07T20:19:24.868Z,76.36
2022-09-07T20:21:55.723Z,76.84
2022-09-07T20:24:23.463Z,76.63
2022-09-07T20:26:51.180Z,78.83
2022-09-07T20:29:28.272Z,78.03
2022-09-07T20:31:56.859Z,78.63
2022-09-07T20:34:24.674Z,78.54
2022-09-07T20:36:53.819Z,78.51
2022-09-07T20:39:21.954Z,79.88
2022-09-07T20:41:49.554Z,80.60
2022-09-07T20:44:17.470Z,79.65
2022-09-07T20:46:45.229Z,80.73
2022-09-07T20:49:12.853Z,80.23
2022-09-07T20:51:40.659Z,80.38
2022-09-07T20:54:10.125Z,80.33
2022-09-07T20:56:37.742Z,80.29
2022-09-07T20:59:05.312Z,79.84
2022-09-07T21:01:35.116Z,78.28
2022-09-07T21:04:04.021Z,78.65
2022-09-07T21:06:32.688Z,78.50
2022-09-07T21:09:00.703Z,79.23
2022-09-07T21:11:31.124Z,79.26
2022-09-07T21:14:00.512Z,79.16
2022-09-07T21:16:28.462Z,80.32
2022-09-07T21:18:57.845Z,80.15
2022-09-07T21:21:27.173Z,80.02
2022-09-07T21:23:59.344Z,82.44
2022-09-07T21:26:28.939Z,81.65
2022-09-07T21:28:57.183Z,81.35
2022-09-07T21:31:25.302Z,81.44
2022-09-07T21:33:55.107Z,81.12
2022-09-07T21:36:22.899Z,81.25
2022-09-07T21:38:50.485Z,81.50
2022-09-07T21:41:20.139Z,81.75
2022-09-07T21:43:49.153Z,83.47
2022-09-07T21:46:18.224Z,83.69
2022-09-07T21:48:46.400Z,83.92
2022-09-07T21:51:14.211Z,84.51
2022-09-07T21:53:41.961Z,85.23
2022-09-07T21:56:12.485Z,84.18
2022-09-07T21:58:40.340Z,84.42
2022-09-07T22:01:14.352Z,82.54
2022-09-07T22:03:42.192Z,83.72
2022-09-07T22:06:10.823Z,82.96
2022-09-07T22:08:39.713Z,83.09
2022-09-07T22:11:08.668Z,83.05
2022-09-07T22:13:36.363Z,83.67
2022-09-07T22:16:04.689Z,83.90
2022-09-07T22:18:34.814Z,86.21
2022-09-07T22:21:04.333Z,87.33
2022-09-07T22:23:32.071Z,89.27
2022-09-07T22:25:59.866Z,89.96
2022-09-07T22:28:29.444Z,91.36
2022-09-07T22:30:57.116Z,93.29
2022-09-07T22:33:25.191Z,94.33
2022-09-07T22:35:54.115Z,96.42
2022-09-07T22:38:21.671Z,96.09
2022-09-07T22:40:49.241Z,97.84
2022-09-07T22:43:16.790Z,99.18
2022-09-07T22:45:44.507Z,99.49
2022-09-07T22:48:12.083Z,98.48
2022-09-07T22:50:39.664Z,100.00
2022-09-07T22:53:08.599Z,100.00
2022-09-07T22:55:39.250Z,100.00
2022-09-07T22:58:06.798Z,100.00
2022-09-07T23:00:36.668Z,100.00
2022-09-07T23:03:04.993Z,100.00
2022-09-07T23:05:36.977Z,100.00
2022-09-07T23:08:05.024Z,100.00
2022-09-07T23:10:36.349Z,100.00
2022-09-07T23:13:04.599Z,100.00
2022-09-07T23:15:32.201Z,100.00
2022-09-07T23:17:59.753Z,100.00
2022-09-07T23:20:27.301Z,100.00
2022-09-07T23:22:54.906Z,100.00
2022-09-07T23:25:22.661Z,100.00
2022-09-07T23:27:51.597Z,100.00
2022-09-07T23:30:19.194Z,100.00
2022-09-07T23:32:46.799Z,100.00
2022-09-07T23:35:16.667Z,100.00
2022-09-07T23:37:44.563Z,100.00
2022-09-07T23:40:12.356Z,100.00
2022-09-07T23:42:40.017Z,100.00
2022-09-07T23:45:10.280Z,100.00
2022-09-07T23:47:37.854Z,100.00
2022-09-07T23:50:05.783Z,100.00
2022-09-07T23:52:33.622Z,100.00
2022-09-07T23:55:01.248Z,100.00
2022-09-07T23:57:28.856Z,100.00
2022-09-07T23:59:56.398Z,100.00
